createdAt,value
2022-07-25T00:01:23.602Z,63.98
2022-07-25T00:03:52.192Z,63.82
2022-07-25T00:06:22.160Z,64.07
2022-07-25T00:08:50.257Z,63.83
2022-07-25T00:11:18.401Z,63.86
2022-07-25T00:13:46.541Z,64.14
2022-07-25T00:16:14.962Z,63.91
2022-07-25T00:18:43.041Z,64.29
2022-07-25T00:21:11.608Z,64.08
2022-07-25T00:23:41.216Z,64.17
2022-07-25T00:26:09.504Z,64.17
2022-07-25T00:28:37.647Z,64.13
2022-07-25T00:31:06.076Z,63.98
2022-07-25T00:33:36.221Z,64.31
2022-07-25T00:36:04.184Z,64.41
2022-07-25T00:38:32.514Z,64.28
2022-07-25T00:41:02.351Z,64.22
2022-07-25T00:43:30.464Z,64.43
2022-07-25T00:45:59.742Z,64.14
2022-07-25T00:48:29.186Z,64.47
2022-07-25T00:50:57.517Z,64.41
2022-07-25T00:53:25.819Z,64.24
2022-07-25T00:55:54.734Z,64.13
2022-07-25T00:58:24.142Z,64.42
2022-07-25T01:00:52.358Z,64.17
2022-07-25T01:03:20.724Z,64.24
2022-07-25T01:05:53.728Z,64.53
2022-07-25T01:08:23.277Z,64.45
2022-07-25T01:10:51.524Z,64.17
2022-07-25T01:13:19.817Z,64.30
2022-07-25T01:15:50.783Z,64.46
2022-07-25T01:18:19.092Z,64.19
2022-07-25T01:20:48.996Z,64.31
2022-07-25T01:23:17.475Z,64.58
2022-07-25T01:25:46.014Z,64.33
2022-07-25T01:28:14.368Z,64.36
2022-07-25T01:30:42.542Z,64.23
2022-07-25T01:33:11.152Z,64.02
2022-07-25T01:35:43.429Z,64.33
2022-07-25T01:38:13.905Z,64.52
2022-07-25T01:40:42.429Z,64.42
2022-07-25T01:43:11.184Z,64.37
2022-07-25T01:45:39.578Z,64.34
2022-07-25T01:48:08.471Z,64.48
2022-07-25T01:50:36.854Z,64.47
2022-07-25T01:53:05.472Z,64.72
2022-07-25T01:55:35.129Z,64.33
2022-07-25T01:58:03.232Z,64.54
2022-07-25T02:00:32.097Z,64.32
2022-07-25T02:03:17.353Z,64.79
2022-07-25T02:05:46.460Z,64.66
2022-07-25T02:08:14.489Z,64.56
2022-07-25T02:10:44.618Z,64.69
2022-07-25T02:13:13.012Z,64.54
2022-07-25T02:15:41.311Z,64.70
2022-07-25T02:18:09.463Z,64.44
2022-07-25T02:20:37.475Z,64.61
2022-07-25T02:23:06.524Z,64.80
2022-07-25T02:25:35.462Z,64.42
2022-07-25T02:28:05.356Z,64.51
2022-07-25T02:30:33.393Z,64.77
2022-07-25T02:33:01.352Z,64.70
2022-07-25T02:35:31.025Z,64.89
2022-07-25T02:37:59.086Z,64.63
2022-07-25T02:40:27.123Z,64.75
2022-07-25T02:42:55.167Z,64.79
2022-07-25T02:45:24.595Z,64.56
2022-07-25T02:47:52.985Z,64.63
2022-07-25T02:50:21.144Z,64.48
2022-07-25T02:52:49.405Z,64.82
2022-07-25T02:55:17.449Z,64.97
2022-07-25T02:57:45.675Z,65.03
2022-07-25T03:00:15.696Z,64.97
2022-07-25T03:02:45.517Z,64.80
2022-07-25T03:05:16.410Z,64.87
2022-07-25T03:07:46.332Z,64.75
2022-07-25T03:10:15.397Z,64.61
2022-07-25T03:12:44.726Z,64.60
2022-07-25T03:15:14.696Z,64.69
2022-07-25T03:17:44.357Z,65.13
2022-07-25T03:20:12.949Z,64.91
2022-07-25T03:22:41.123Z,64.96
2022-07-25T03:25:15.597Z,64.97
2022-07-25T03:27:49.462Z,65.08
2022-07-25T03:30:17.741Z,64.63
2022-07-25T03:32:47.918Z,64.75
2022-07-25T03:35:16.715Z,64.81
2022-07-25T03:37:45.176Z,64.67
2022-07-25T03:40:14.706Z,65.07
2022-07-25T03:42:43.985Z,64.87
2022-07-25T03:45:12.850Z,64.76
2022-07-25T03:47:41.018Z,64.70
2022-07-25T03:50:11.451Z,65.07
2022-07-25T03:52:39.601Z,64.73
2022-07-25T03:55:09.583Z,64.78
2022-07-25T03:57:37.759Z,64.88
2022-07-25T04:00:07.410Z,65.25
2022-07-25T04:02:38.602Z,65.21
2022-07-25T04:05:07.675Z,65.22
2022-07-25T04:07:38.233Z,65.00
2022-07-25T04:10:08.036Z,65.30
2022-07-25T04:12:36.185Z,64.96
2022-07-25T04:15:04.991Z,65.04
2022-07-25T04:17:33.335Z,64.95
2022-07-25T04:20:01.540Z,65.12
2022-07-25T04:22:29.792Z,64.90
2022-07-25T04:24:59.216Z,65.09
2022-07-25T04:27:27.788Z,65.08
2022-07-25T04:29:56.312Z,65.38
2022-07-25T04:32:24.794Z,65.31
2022-07-25T04:34:55.686Z,65.32
2022-07-25T04:37:23.623Z,65.00
2022-07-25T04:39:52.174Z,64.95
2022-07-25T04:42:21.839Z,65.14
2022-07-25T04:44:50.044Z,65.36
2022-07-25T04:47:18.235Z,65.28
2022-07-25T04:49:46.706Z,65.26
2022-07-25T04:52:14.709Z,65.42
2022-07-25T04:54:43.327Z,65.12
2022-07-25T04:57:11.359Z,65.18
2022-07-25T04:59:40.797Z,65.46
2022-07-25T05:02:10.168Z,65.41
2022-07-25T05:04:44.790Z,65.17
2022-07-25T05:07:13.337Z,65.49
2022-07-25T05:09:41.376Z,65.21
2022-07-25T05:12:09.836Z,65.02
2022-07-25T05:14:37.919Z,65.24
2022-07-25T05:17:10.395Z,65.38
2022-07-25T05:19:38.936Z,65.13
2022-07-25T05:22:07.265Z,65.28
2022-07-25T05:24:36.185Z,65.15
2022-07-25T05:27:05.401Z,65.42
2022-07-25T05:29:34.207Z,65.45
2022-07-25T05:32:02.481Z,65.61
2022-07-25T05:34:32.076Z,65.37
2022-07-25T05:37:00.490Z,65.63
2022-07-25T05:39:28.594Z,65.63
2022-07-25T05:41:56.811Z,65.33
2022-07-25T05:44:24.904Z,65.54
2022-07-25T05:46:53.588Z,65.19
2022-07-25T05:49:22.034Z,65.21
2022-07-25T05:51:51.942Z,65.19
2022-07-25T05:54:20.151Z,65.56
2022-07-25T05:56:48.240Z,65.67
2022-07-25T05:59:17.748Z,65.42
2022-07-25T06:01:46.081Z,65.30
2022-07-25T06:04:14.405Z,65.61
2022-07-25T06:06:42.389Z,65.28
2022-07-25T06:09:12.003Z,65.28
2022-07-25T06:11:51.033Z,65.77
2022-07-25T06:14:24.087Z,65.70
2022-07-25T06:16:54.159Z,65.68
2022-07-25T06:19:22.222Z,65.81
2022-07-25T06:21:50.576Z,65.51
2022-07-25T06:24:20.151Z,65.81
2022-07-25T06:26:48.482Z,65.66
2022-07-25T06:29:16.786Z,65.80
2022-07-25T06:31:46.368Z,65.50
2022-07-25T06:34:15.247Z,65.53
2022-07-25T06:36:43.554Z,65.86
2022-07-25T06:39:11.575Z,65.86
2022-07-25T06:41:41.451Z,65.86
2022-07-25T06:44:10.020Z,65.58
2022-07-25T06:46:38.198Z,65.67
2022-07-25T06:49:06.395Z,65.75
2022-07-25T06:51:35.847Z,65.88
2022-07-25T06:54:04.409Z,65.62
2022-07-25T06:56:33.362Z,66.04
2022-07-25T06:59:03.223Z,66.00
2022-07-25T07:01:31.981Z,65.77
2022-07-25T07:04:00.138Z,65.91
2022-07-25T07:06:28.260Z,66.11
2022-07-25T07:08:56.325Z,66.01
2022-07-25T07:11:24.624Z,66.05
2022-07-25T07:13:52.836Z,66.05
2022-07-25T07:16:22.656Z,65.96
2022-07-25T07:18:50.711Z,65.96
2022-07-25T07:21:21.393Z,66.26
2022-07-25T07:23:49.836Z,66.15
2022-07-25T07:26:21.839Z,66.42
2022-07-25T07:28:49.854Z,66.07
2022-07-25T07:31:18.416Z,66.04
2022-07-25T07:33:48.307Z,66.07
2022-07-25T07:36:16.442Z,66.21
2022-07-25T07:38:45.751Z,66.49
2022-07-25T07:41:14.411Z,66.40
2022-07-25T07:43:42.578Z,66.33
2022-07-25T07:46:10.691Z,66.35
2022-07-25T07:48:38.934Z,66.23
2022-07-25T07:51:08.629Z,66.41
2022-07-25T07:53:54.490Z,66.25
2022-07-25T07:56:23.172Z,66.09
2022-07-25T07:58:51.511Z,66.13
2022-07-25T08:01:19.894Z,66.31
2022-07-25T08:03:48.104Z,66.63
2022-07-25T08:06:17.722Z,66.18
2022-07-25T08:08:46.303Z,66.26
2022-07-25T08:11:14.502Z,66.68
2022-07-25T08:13:42.877Z,66.49
2022-07-25T08:16:12.070Z,66.31
2022-07-25T08:18:40.506Z,66.64
2022-07-25T08:21:08.576Z,66.45
2022-07-25T08:23:39.479Z,66.64
2022-07-25T08:26:08.317Z,66.36
2022-07-25T08:28:37.009Z,66.85
2022-07-25T08:31:05.157Z,66.86
2022-07-25T08:33:33.430Z,66.69
2022-07-25T08:36:01.909Z,66.78
2022-07-25T08:38:30.463Z,66.76
2022-07-25T08:41:00.281Z,66.96
2022-07-25T08:43:33.119Z,66.55
2022-07-25T08:46:03.193Z,66.71
2022-07-25T08:48:31.338Z,66.62
2022-07-25T08:51:00.659Z,66.65
2022-07-25T08:53:33.295Z,66.63
2022-07-25T08:56:09.955Z,66.81
2022-07-25T08:58:41.126Z,66.93
2022-07-25T09:01:09.399Z,66.99
2022-07-25T09:03:37.846Z,66.94
2022-07-25T09:06:16.078Z,67.05
2022-07-25T09:08:55.993Z,66.99
2022-07-25T09:11:34.284Z,66.83
2022-07-25T09:14:06.852Z,66.91
2022-07-25T09:16:39.999Z,66.92
2022-07-25T09:19:14.062Z,66.80
2022-07-25T09:21:44.222Z,67.04
2022-07-25T09:24:16.048Z,66.81
2022-07-25T09:26:48.999Z,67.10
2022-07-25T09:29:22.322Z,67.04
2022-07-25T09:31:51.719Z,67.30
2022-07-25T09:34:35.005Z,67.39
2022-07-25T09:37:03.833Z,66.84
2022-07-25T09:39:40.748Z,67.02
2022-07-25T09:42:23.637Z,67.38
2022-07-25T09:45:07.552Z,67.40
2022-07-25T09:47:37.904Z,67.10
2022-07-25T09:50:07.908Z,67.47
2022-07-25T09:52:37.365Z,67.21
2022-07-25T09:55:09.616Z,67.38
2022-07-25T09:57:39.173Z,67.26
2022-07-25T10:00:10.670Z,67.40
2022-07-25T10:02:48.897Z,67.30
2022-07-25T10:05:21.972Z,67.16
2022-07-25T10:07:53.737Z,67.46
2022-07-25T10:10:25.387Z,67.42
2022-07-25T10:13:07.871Z,67.39
2022-07-25T10:15:46.838Z,67.15
2022-07-25T10:18:17.064Z,67.22
2022-07-25T10:20:46.196Z,67.27
2022-07-25T10:23:21.730Z,67.61
2022-07-25T10:26:01.161Z,67.36
2022-07-25T10:28:40.562Z,67.75
2022-07-25T10:31:22.243Z,67.81
2022-07-25T10:33:53.820Z,67.70
2022-07-25T10:36:23.701Z,67.33
2022-07-25T10:38:55.232Z,67.76
2022-07-25T10:41:26.900Z,67.48
2022-07-25T10:43:59.038Z,67.69
2022-07-25T10:46:31.280Z,67.48
2022-07-25T10:49:04.579Z,67.58
2022-07-25T10:51:37.089Z,67.80
2022-07-25T10:54:17.124Z,67.71
2022-07-25T10:56:56.735Z,67.81
2022-07-25T10:59:31.754Z,67.58
2022-07-25T11:02:00.009Z,67.71
2022-07-25T11:04:28.284Z,67.79
2022-07-25T11:06:57.453Z,67.44
2022-07-25T11:09:28.297Z,67.66
2022-07-25T11:11:58.446Z,67.50
2022-07-25T11:14:32.854Z,67.57
2022-07-25T11:17:12.981Z,67.84
2022-07-25T11:19:43.484Z,67.55
2022-07-25T11:22:12.170Z,67.84
2022-07-25T11:24:42.053Z,67.92
2022-07-25T11:27:12.357Z,67.55
2022-07-25T11:29:42.354Z,67.70
2022-07-25T11:32:12.396Z,67.90
2022-07-25T11:34:43.521Z,67.89
2022-07-25T11:37:14.513Z,68.13
2022-07-25T11:39:44.052Z,68.14
2022-07-25T11:42:16.272Z,68.16
2022-07-25T11:44:48.486Z,67.95
2022-07-25T11:47:28.204Z,68.04
2022-07-25T11:49:57.895Z,67.90
2022-07-25T11:52:29.958Z,68.13
2022-07-25T11:54:59.556Z,67.87
2022-07-25T11:57:29.217Z,68.10
2022-07-25T12:00:00.437Z,68.17
2022-07-25T12:02:31.182Z,68.12
2022-07-25T12:05:01.319Z,67.89
2022-07-25T12:07:51.816Z,68.45
2022-07-25T12:10:22.808Z,68.19
2022-07-25T12:12:54.613Z,67.78
2022-07-25T12:15:26.169Z,68.20
2022-07-25T12:17:56.132Z,68.09
2022-07-25T12:20:26.091Z,68.18
2022-07-25T12:22:55.863Z,68.15
2022-07-25T12:25:28.900Z,68.25
2022-07-25T12:27:59.915Z,68.10
2022-07-25T12:30:30.344Z,68.10
2022-07-25T12:32:59.844Z,68.35
2022-07-25T12:35:28.339Z,68.07
2022-07-25T12:37:56.395Z,68.28
2022-07-25T12:40:24.890Z,68.18
2022-07-25T12:42:52.980Z,68.20
2022-07-25T12:45:20.925Z,68.18
2022-07-25T12:47:50.487Z,68.40
2022-07-25T12:50:19.139Z,68.17
2022-07-25T12:52:47.499Z,67.99
2022-07-25T12:55:17.291Z,68.09
2022-07-25T12:57:46.502Z,68.24
2022-07-25T13:00:17.267Z,68.18
2022-07-25T13:02:45.328Z,68.26
2022-07-25T13:05:14.676Z,68.17
2022-07-25T13:07:42.648Z,68.16
2022-07-25T13:10:10.890Z,68.19
2022-07-25T13:12:39.862Z,68.46
2022-07-25T13:15:08.896Z,68.18
2022-07-25T13:17:37.393Z,68.52
2022-07-25T13:20:06.017Z,68.36
2022-07-25T13:22:35.407Z,68.55
2022-07-25T13:25:04.363Z,68.25
2022-07-25T13:27:32.340Z,68.32
2022-07-25T13:30:00.327Z,68.24
2022-07-25T13:32:28.680Z,68.49
2022-07-25T13:34:57.060Z,68.30
2022-07-25T13:37:25.056Z,68.30
2022-07-25T13:39:54.388Z,68.60
2022-07-25T13:42:22.540Z,68.56
2022-07-25T13:44:50.495Z,68.77
2022-07-25T13:47:20.725Z,68.53
2022-07-25T13:49:48.671Z,68.51
2022-07-25T13:52:17.297Z,68.37
2022-07-25T13:54:46.218Z,68.47
2022-07-25T13:57:15.457Z,68.65
2022-07-25T13:59:43.444Z,68.87
2022-07-25T14:02:11.380Z,68.54
2022-07-25T14:04:40.112Z,68.53
2022-07-25T14:07:08.086Z,68.44
2022-07-25T14:09:36.090Z,68.67
2022-07-25T14:12:04.039Z,68.82
2022-07-25T14:14:33.603Z,68.76
2022-07-25T14:17:01.812Z,68.68
2022-07-25T14:19:30.385Z,68.56
2022-07-25T14:21:58.711Z,68.37
2022-07-25T14:24:26.732Z,68.79
2022-07-25T14:26:57.312Z,68.29
2022-07-25T14:29:30.183Z,68.62
2022-07-25T14:32:00.061Z,68.64
2022-07-25T14:34:28.505Z,68.52
2022-07-25T14:36:56.514Z,68.50
2022-07-25T14:39:24.621Z,68.79
2022-07-25T14:41:53.315Z,68.80
2022-07-25T14:44:22.108Z,68.36
2022-07-25T14:46:50.702Z,68.76
2022-07-25T14:49:20.686Z,68.48
2022-07-25T14:51:49.098Z,68.37
2022-07-25T14:54:17.582Z,68.71
2022-07-25T14:56:45.910Z,68.67
2022-07-25T14:59:14.425Z,68.72
2022-07-25T15:01:42.914Z,68.76
2022-07-25T15:04:10.899Z,68.53
2022-07-25T15:06:40.983Z,68.54
2022-07-25T15:09:09.641Z,68.46
2022-07-25T15:11:38.007Z,68.55
2022-07-25T15:14:05.990Z,68.76
2022-07-25T15:16:34.305Z,68.48
2022-07-25T15:19:18.223Z,68.65
2022-07-25T15:21:47.774Z,68.51
2022-07-25T15:24:18.386Z,68.45
2022-07-25T15:26:46.359Z,68.71
2022-07-25T15:29:20.946Z,68.77
2022-07-25T15:31:50.059Z,68.63
2022-07-25T15:34:18.403Z,68.56
2022-07-25T15:36:47.997Z,68.42
2022-07-25T15:39:16.163Z,68.93
2022-07-25T15:41:44.434Z,68.86
2022-07-25T15:44:12.532Z,68.91
2022-07-25T15:46:41.470Z,68.74
2022-07-25T15:49:10.906Z,68.84
2022-07-25T15:51:39.770Z,68.80
2022-07-25T15:54:09.422Z,68.87
2022-07-25T15:56:37.584Z,68.91
2022-07-25T15:59:06.054Z,68.91
2022-07-25T16:01:34.802Z,69.17
2022-07-25T16:04:02.997Z,68.97
2022-07-25T16:06:31.334Z,68.98
2022-07-25T16:08:59.553Z,69.19
2022-07-25T16:11:29.190Z,69.18
2022-07-25T16:13:57.352Z,69.04
2022-07-25T16:16:26.067Z,68.99
2022-07-25T16:18:55.575Z,69.06
2022-07-25T16:21:23.630Z,68.87
2022-07-25T16:23:51.693Z,69.09
2022-07-25T16:26:19.979Z,68.97
2022-07-25T16:28:50.362Z,68.90
2022-07-25T16:31:18.699Z,68.93
2022-07-25T16:33:47.084Z,68.95
2022-07-25T16:36:15.543Z,68.86
2022-07-25T16:38:45.347Z,69.14
2022-07-25T16:41:13.513Z,68.92
2022-07-25T16:43:41.561Z,69.12
2022-07-25T16:46:12.207Z,68.94
2022-07-25T16:48:40.320Z,69.41
2022-07-25T16:51:08.487Z,68.92
2022-07-25T16:53:37.104Z,69.00
2022-07-25T16:56:05.681Z,69.18
2022-07-25T16:58:35.315Z,69.43
2022-07-25T17:01:03.400Z,69.50
2022-07-25T17:03:32.708Z,69.29
2022-07-25T17:06:01.478Z,69.39
2022-07-25T17:08:32.079Z,69.32
2022-07-25T17:11:00.711Z,69.35
2022-07-25T17:13:28.960Z,69.09
2022-07-25T17:16:00.175Z,69.32
2022-07-25T17:18:28.396Z,69.35
2022-07-25T17:20:58.465Z,69.26
2022-07-25T17:23:26.584Z,69.46
2022-07-25T17:25:55.420Z,69.37
2022-07-25T17:28:24.793Z,69.22
2022-07-25T17:30:53.175Z,69.43
2022-07-25T17:33:21.585Z,69.18
2022-07-25T17:35:49.957Z,69.38
2022-07-25T17:38:25.363Z,69.45
2022-07-25T17:40:53.959Z,69.43
2022-07-25T17:43:22.178Z,69.15
2022-07-25T17:45:50.388Z,69.59
2022-07-25T17:48:18.437Z,69.65
2022-07-25T17:50:46.643Z,69.30
2022-07-25T17:53:18.213Z,69.26
2022-07-25T17:55:47.808Z,69.37
2022-07-25T17:58:15.771Z,69.65
2022-07-25T18:00:43.741Z,69.51
2022-07-25T18:03:11.787Z,69.35
2022-07-25T18:05:40.145Z,69.51
2022-07-25T18:08:08.212Z,69.33
2022-07-25T18:10:36.369Z,69.51
2022-07-25T18:13:06.353Z,69.60
2022-07-25T18:15:34.594Z,69.55
2022-07-25T18:18:02.774Z,69.13
2022-07-25T18:20:31.415Z,69.49
2022-07-25T18:22:59.385Z,69.57
2022-07-25T18:25:27.607Z,69.59
2022-07-25T18:27:55.810Z,69.38
2022-07-25T18:30:29.100Z,69.19
2022-07-25T18:32:57.733Z,69.57
2022-07-25T18:35:26.133Z,69.29
2022-07-25T18:37:54.200Z,69.45
2022-07-25T18:40:22.697Z,69.45
2022-07-25T18:42:50.654Z,69.67
2022-07-25T18:45:18.753Z,69.44
2022-07-25T18:47:48.803Z,69.25
2022-07-25T18:50:19.933Z,69.56
2022-07-25T18:52:48.554Z,69.41
2022-07-25T18:55:16.502Z,69.60
2022-07-25T18:57:44.750Z,69.23
2022-07-25T19:00:13.504Z,69.71
2022-07-25T19:02:41.573Z,69.81
2022-07-25T19:05:11.908Z,69.54
2022-07-25T19:07:41.147Z,69.55
2022-07-25T19:10:10.682Z,69.66
2022-07-25T19:12:38.737Z,69.42
2022-07-25T19:15:08.066Z,69.53
2022-07-25T19:17:37.831Z,69.79
2022-07-25T19:20:07.335Z,69.60
2022-07-25T19:22:37.388Z,69.45
2022-07-25T19:25:08.585Z,69.72
2022-07-25T19:27:37.351Z,69.58
2022-07-25T19:30:07.235Z,69.55
2022-07-25T19:32:35.626Z,69.43
2022-07-25T19:35:03.636Z,69.78
2022-07-25T19:37:31.809Z,69.37
2022-07-25T19:40:01.483Z,69.85
2022-07-25T19:42:29.547Z,69.85
2022-07-25T19:44:57.838Z,69.38
2022-07-25T19:47:26.114Z,69.89
2022-07-25T19:49:55.145Z,69.49
2022-07-25T19:52:23.904Z,69.61
2022-07-25T19:54:52.199Z,69.75
2022-07-25T19:57:21.737Z,69.86
2022-07-25T19:59:49.828Z,69.57
2022-07-25T20:02:18.166Z,69.45
2022-07-25T20:04:46.448Z,69.83
2022-07-25T20:07:14.706Z,69.54
2022-07-25T20:09:43.124Z,70.00
2022-07-25T20:12:11.956Z,69.82
2022-07-25T20:14:41.533Z,69.58
2022-07-25T20:17:09.575Z,69.52
2022-07-25T20:19:38.519Z,69.63
2022-07-25T20:22:07.171Z,69.95
2022-07-25T20:24:35.280Z,69.66
2022-07-25T20:27:03.736Z,70.06
2022-07-25T20:29:31.932Z,69.58
2022-07-25T20:32:02.771Z,69.84
2022-07-25T20:34:30.740Z,69.98
2022-07-25T20:36:58.712Z,69.60
2022-07-25T20:39:28.816Z,69.72
2022-07-25T20:41:56.838Z,69.63
2022-07-25T20:44:25.304Z,69.80
2022-07-25T20:46:53.253Z,69.83
2022-07-25T20:49:22.684Z,69.75
2022-07-25T20:51:54.444Z,69.93
2022-07-25T20:54:23.207Z,69.94
2022-07-25T20:56:51.238Z,69.66
2022-07-25T20:59:19.563Z,69.68
2022-07-25T21:01:47.639Z,69.58
2022-07-25T21:04:17.000Z,70.09
2022-07-25T21:06:46.580Z,69.70
2022-07-25T21:09:14.795Z,69.66
2022-07-25T21:11:42.887Z,69.74
2022-07-25T21:14:11.140Z,69.65
2022-07-25T21:16:39.661Z,69.81
2022-07-25T21:19:08.077Z,69.69
2022-07-25T21:21:37.431Z,69.87
2022-07-25T21:24:07.829Z,69.73
2022-07-25T21:26:37.243Z,69.61
2022-07-25T21:29:05.658Z,69.76
2022-07-25T21:31:34.955Z,69.91
2022-07-25T21:34:03.311Z,69.72
2022-07-25T21:36:31.960Z,69.59
2022-07-25T21:38:59.904Z,69.65
2022-07-25T21:41:29.537Z,69.89
2022-07-25T21:43:58.807Z,69.71
2022-07-25T21:46:27.701Z,69.68
2022-07-25T21:49:13.799Z,69.88
2022-07-25T21:51:42.237Z,69.57
2022-07-25T21:54:11.185Z,69.90
2022-07-25T21:56:42.040Z,69.80
2022-07-25T21:59:10.829Z,69.82
2022-07-25T22:01:40.181Z,69.97
2022-07-25T22:04:08.907Z,69.95
2022-07-25T22:06:37.040Z,69.44
2022-07-25T22:09:07.368Z,69.88
2022-07-25T22:11:42.421Z,69.51
2022-07-25T22:14:16.572Z,69.92
2022-07-25T22:16:44.669Z,69.73
2022-07-25T22:19:12.794Z,69.94
2022-07-25T22:21:41.919Z,69.65
2022-07-25T22:24:11.215Z,69.76
2022-07-25T22:26:39.260Z,69.64
2022-07-25T22:29:07.905Z,69.63
2022-07-25T22:31:39.257Z,69.41
2022-07-25T22:34:07.758Z,69.74
2022-07-25T22:36:35.900Z,69.55
2022-07-25T22:39:04.492Z,69.56
2022-07-25T22:41:33.062Z,69.82
2022-07-25T22:44:01.071Z,69.84
2022-07-25T22:46:30.559Z,69.52
2022-07-25T22:49:00.942Z,69.49
2022-07-25T22:51:30.189Z,70.00
2022-07-25T22:53:58.667Z,69.71
2022-07-25T22:56:27.728Z,69.80
2022-07-25T22:58:56.359Z,69.71
2022-07-25T23:01:24.360Z,69.64
2022-07-25T23:03:52.676Z,70.00
2022-07-25T23:06:23.170Z,69.94
2022-07-25T23:08:51.576Z,69.88
2022-07-25T23:11:19.789Z,69.53
2022-07-25T23:13:48.116Z,69.55
2022-07-25T23:16:16.317Z,69.57
2022-07-25T23:18:44.408Z,69.98
2022-07-25T23:21:12.612Z,69.78
2022-07-25T23:23:42.151Z,69.94
2022-07-25T23:26:10.640Z,69.80
2022-07-25T23:28:38.725Z,69.77
2022-07-25T23:31:07.250Z,69.61
2022-07-25T23:33:35.391Z,69.93
2022-07-25T23:36:03.574Z,69.69
2022-07-25T23:38:31.728Z,69.73
2022-07-25T23:41:01.147Z,69.59
2022-07-25T23:43:53.838Z,69.36
2022-07-25T23:46:18.465Z,69.74
2022-07-25T23:48:52.148Z,69.45
2022-07-25T23:51:20.561Z,69.61
2022-07-25T23:53:49.214Z,69.76
2022-07-25T23:56:21.088Z,69.51
2022-07-25T23:58:50.339Z,69.38
